createdAt,value
2017-11-22T00:00:18.164Z,954.94
2017-11-22T00:01:18.167Z,954.92
2017-11-22T00:02:18.174Z,954.92
2017-11-22T00:03:18.176Z,954.90
2017-11-22T00:04:18.177Z,954.87
2017-11-22T00:05:18.185Z,954.89
2017-11-22T00:06:18.195Z,954.87
2017-11-22T00:07:18.186Z,954.88
2017-11-22T00:08:18.190Z,954.85
2017-11-22T00:09:18.192Z,954.90
2017-11-22T00:10:18.193Z,954.82
2017-11-22T00:11:18.209Z,954.83
2017-11-22T00:12:18.208Z,954.83
2017-11-22T00:13:18.209Z,954.84
2017-11-22T00:14:18.226Z,954.85
2017-11-22T00:15:18.213Z,954.82
2017-11-22T00:16:18.216Z,954.85
2017-11-22T00:17:18.218Z,954.84
2017-11-22T00:18:18.223Z,954.88
2017-11-22T00:19:18.226Z,954.89
2017-11-22T00:20:18.229Z,954.92
2017-11-22T00:21:18.230Z,954.94
2017-11-22T00:22:18.234Z,954.95
2017-11-22T00:23:18.238Z,954.95
2017-11-22T00:24:18.241Z,954.92
2017-11-22T00:25:18.243Z,954.91
2017-11-22T00:26:18.248Z,954.87
2017-11-22T00:27:18.250Z,954.86
2017-11-22T00:28:18.254Z,954.86
2017-11-22T00:29:18.256Z,954.83
2017-11-22T00:30:18.259Z,954.85
2017-11-22T00:31:18.264Z,954.83
2017-11-22T00:32:18.268Z,954.85
2017-11-22T00:33:18.271Z,954.79
2017-11-22T00:34:18.271Z,954.81
2017-11-22T00:35:18.275Z,954.78
2017-11-22T00:36:18.279Z,954.79
2017-11-22T00:37:18.281Z,954.76
2017-11-22T00:38:18.295Z,954.80
2017-11-22T00:39:18.289Z,954.77
2017-11-22T00:40:18.292Z,954.74
2017-11-22T00:41:18.299Z,954.73
2017-11-22T00:42:18.298Z,954.74
2017-11-22T00:43:18.303Z,954.70
2017-11-22T00:44:18.308Z,954.68
2017-11-22T00:45:18.308Z,954.70
2017-11-22T00:46:18.310Z,954.71
2017-11-22T00:47:18.316Z,954.72
2017-11-22T00:48:18.317Z,954.74
2017-11-22T00:49:18.319Z,954.69
2017-11-22T00:50:18.324Z,954.69
2017-11-22T00:51:18.326Z,954.69
2017-11-22T00:52:18.330Z,954.71
2017-11-22T00:53:18.333Z,954.70
2017-11-22T00:54:18.336Z,954.71
2017-11-22T00:55:18.341Z,954.67
2017-11-22T00:56:18.342Z,954.68
2017-11-22T00:57:18.344Z,954.71
2017-11-22T00:58:18.348Z,954.66
2017-11-22T00:59:18.351Z,954.62
2017-11-22T01:00:18.356Z,954.59
2017-11-22T01:01:18.357Z,954.56
2017-11-22T01:02:18.362Z,954.59
2017-11-22T01:03:18.365Z,954.59
2017-11-22T01:04:18.368Z,954.58
2017-11-22T01:05:18.369Z,954.53
2017-11-22T01:06:18.373Z,954.55
2017-11-22T01:07:18.376Z,954.53
2017-11-22T01:08:18.382Z,954.54
2017-11-22T01:09:18.383Z,954.54
2017-11-22T01:10:18.386Z,954.54
2017-11-22T01:11:18.390Z,954.61
2017-11-22T01:12:18.393Z,954.64
2017-11-22T01:13:18.396Z,954.63
2017-11-22T01:14:18.399Z,954.64
2017-11-22T01:15:18.404Z,954.66
2017-11-22T01:16:18.408Z,954.62
2017-11-22T01:17:18.415Z,954.63
2017-11-22T01:18:18.419Z,954.61
2017-11-22T01:19:18.419Z,954.63
2017-11-22T01:20:18.425Z,954.64
2017-11-22T01:21:18.422Z,954.64
2017-11-22T01:22:18.436Z,954.66
2017-11-22T01:23:18.428Z,954.61
2017-11-22T01:24:18.440Z,954.60
2017-11-22T01:25:18.434Z,954.63
2017-11-22T01:26:18.438Z,954.61
2017-11-22T01:27:18.444Z,954.59
2017-11-22T01:28:18.444Z,954.61
2017-11-22T01:29:18.446Z,954.60
2017-11-22T01:30:18.463Z,954.59
2017-11-22T01:31:18.452Z,954.63
2017-11-22T01:32:18.457Z,954.62
2017-11-22T01:33:18.458Z,954.62
2017-11-22T01:34:18.461Z,954.59
2017-11-22T01:35:18.465Z,954.56
2017-11-22T01:36:18.472Z,954.55
2017-11-22T01:37:18.483Z,954.55
2017-11-22T01:38:18.474Z,954.57
2017-11-22T01:39:18.478Z,954.60
2017-11-22T01:40:18.479Z,954.65
2017-11-22T01:41:18.485Z,954.62
2017-11-22T01:42:18.487Z,954.62
2017-11-22T01:43:18.490Z,954.60
2017-11-22T01:44:18.494Z,954.65
2017-11-22T01:45:18.498Z,954.64
2017-11-22T01:46:18.509Z,954.63
2017-11-22T01:47:18.504Z,954.58
2017-11-22T01:48:18.507Z,954.60
2017-11-22T01:49:18.510Z,954.62
2017-11-22T01:50:18.513Z,954.60
2017-11-22T01:51:18.516Z,954.59
2017-11-22T01:52:18.519Z,954.57
2017-11-22T01:53:18.522Z,954.56
2017-11-22T01:54:18.526Z,954.57
2017-11-22T01:55:18.527Z,954.50
2017-11-22T01:56:18.531Z,954.57
2017-11-22T01:57:18.534Z,954.53
2017-11-22T01:58:18.541Z,954.48
2017-11-22T01:59:18.545Z,954.48
2017-11-22T02:00:18.546Z,954.48
2017-11-22T02:01:18.553Z,954.46
2017-11-22T02:02:18.548Z,954.46
2017-11-22T02:03:18.553Z,954.44
2017-11-22T02:04:18.557Z,954.38
2017-11-22T02:05:18.558Z,954.36
2017-11-22T02:06:18.565Z,954.37
2017-11-22T02:07:18.567Z,954.38
2017-11-22T02:08:18.585Z,954.34
2017-11-22T02:09:18.580Z,954.34
2017-11-22T02:10:18.575Z,954.40
2017-11-22T02:11:18.578Z,954.37
2017-11-22T02:12:18.581Z,954.38
2017-11-22T02:13:18.583Z,954.35
2017-11-22T02:14:18.587Z,954.40
2017-11-22T02:15:18.590Z,954.37
2017-11-22T02:16:18.602Z,954.40
2017-11-22T02:17:18.616Z,954.38
2017-11-22T02:18:18.599Z,954.42
2017-11-22T02:19:18.603Z,954.43
2017-11-22T02:20:18.607Z,954.45
2017-11-22T02:21:18.609Z,954.41
2017-11-22T02:22:18.620Z,954.42
2017-11-22T02:23:18.615Z,954.41
2017-11-22T02:24:18.620Z,954.40
2017-11-22T02:25:18.621Z,954.34
2017-11-22T02:26:18.624Z,954.36
2017-11-22T02:27:18.628Z,954.42
2017-11-22T02:28:18.630Z,954.41
2017-11-22T02:29:18.635Z,954.39
2017-11-22T02:30:18.637Z,954.39
2017-11-22T02:31:18.641Z,954.39
2017-11-22T02:32:18.643Z,954.37
2017-11-22T02:33:18.649Z,954.32
2017-11-22T02:34:18.648Z,954.28
2017-11-22T02:35:18.651Z,954.33
2017-11-22T02:36:18.656Z,954.35
2017-11-22T02:37:18.662Z,954.40
2017-11-22T02:38:18.664Z,954.41
2017-11-22T02:39:18.665Z,954.42
2017-11-22T02:40:18.668Z,954.36
2017-11-22T02:41:18.671Z,954.30
2017-11-22T02:42:18.674Z,954.28
2017-11-22T02:43:18.680Z,954.26
2017-11-22T02:44:18.680Z,954.24
2017-11-22T02:45:18.683Z,954.28
2017-11-22T02:46:18.692Z,954.29
2017-11-22T02:47:18.691Z,954.31
2017-11-22T02:48:18.693Z,954.29
2017-11-22T02:49:18.695Z,954.35
2017-11-22T02:50:18.699Z,954.37
2017-11-22T02:51:18.704Z,954.34
2017-11-22T02:52:18.708Z,954.36
2017-11-22T02:53:18.711Z,954.37
2017-11-22T02:54:18.711Z,954.40
2017-11-22T02:55:18.714Z,954.40
2017-11-22T02:56:18.753Z,954.38
2017-11-22T02:57:18.720Z,954.39
2017-11-22T02:58:18.724Z,954.35
2017-11-22T02:59:18.726Z,954.37
2017-11-22T03:00:18.981Z,954.33
2017-11-22T03:01:18.732Z,954.32
2017-11-22T03:02:18.735Z,954.34
2017-11-22T03:03:18.739Z,954.35
2017-11-22T03:04:18.742Z,954.39
2017-11-22T03:05:18.744Z,954.33
2017-11-22T03:06:18.748Z,954.33
2017-11-22T03:07:18.750Z,954.29
2017-11-22T03:08:18.755Z,954.30
2017-11-22T03:09:18.756Z,954.28
2017-11-22T03:10:18.766Z,954.21
2017-11-22T03:11:18.764Z,954.20
2017-11-22T03:12:18.766Z,954.18
2017-11-22T03:13:18.769Z,954.14
2017-11-22T03:14:18.773Z,954.15
2017-11-22T03:15:18.776Z,954.12
2017-11-22T03:16:18.779Z,954.14
2017-11-22T03:17:18.783Z,954.12
2017-11-22T03:18:18.784Z,954.14
2017-11-22T03:19:18.789Z,954.16
2017-11-22T03:20:18.791Z,954.15
2017-11-22T03:21:18.797Z,954.15
2017-11-22T03:22:18.796Z,954.13
2017-11-22T03:23:18.799Z,954.15
2017-11-22T03:24:18.804Z,954.14
2017-11-22T03:25:18.805Z,954.12
2017-11-22T03:26:18.809Z,954.10
2017-11-22T03:27:18.812Z,954.10
2017-11-22T03:28:18.815Z,954.11
2017-11-22T03:29:18.818Z,954.10
2017-11-22T03:30:18.823Z,954.10
2017-11-22T03:31:18.827Z,954.11
2017-11-22T03:32:18.828Z,954.08
2017-11-22T03:33:18.834Z,954.14
2017-11-22T03:34:18.833Z,954.13
2017-11-22T03:35:18.836Z,954.15
2017-11-22T03:36:18.840Z,954.17
2017-11-22T03:37:18.842Z,954.21
2017-11-22T03:38:18.852Z,954.22
2017-11-22T03:39:18.848Z,954.25
2017-11-22T03:40:18.857Z,954.31
2017-11-22T03:41:18.856Z,954.29
2017-11-22T03:42:18.860Z,954.34
2017-11-22T03:43:18.861Z,954.35
2017-11-22T03:44:18.863Z,954.38
2017-11-22T03:45:18.865Z,954.38
2017-11-22T03:46:18.875Z,954.40
2017-11-22T03:47:18.871Z,954.37
2017-11-22T03:48:18.877Z,954.35
2017-11-22T03:49:18.876Z,954.36
2017-11-22T03:50:18.881Z,954.33
2017-11-22T03:51:18.897Z,954.30
2017-11-22T03:52:18.887Z,954.33
2017-11-22T03:53:18.890Z,954.37
2017-11-22T03:54:18.893Z,954.33
2017-11-22T03:55:18.896Z,954.30
2017-11-22T03:56:18.898Z,954.26
2017-11-22T03:57:18.904Z,954.27
2017-11-22T03:58:18.905Z,954.21
2017-11-22T03:59:18.909Z,954.22
2017-11-22T04:00:18.913Z,954.16
2017-11-22T04:01:18.913Z,954.17
2017-11-22T04:02:18.918Z,954.15
2017-11-22T04:03:18.920Z,954.15
2017-11-22T04:04:18.923Z,954.16
2017-11-22T04:05:18.928Z,954.15
2017-11-22T04:06:18.931Z,954.22
2017-11-22T04:07:18.934Z,954.17
2017-11-22T04:08:18.935Z,954.16
2017-11-22T04:09:18.938Z,954.18
2017-11-22T04:10:18.941Z,954.15
2017-11-22T04:11:18.945Z,954.14
2017-11-22T04:12:18.949Z,954.13
2017-11-22T04:13:18.951Z,954.16
2017-11-22T04:14:18.953Z,954.19
2017-11-22T04:15:18.956Z,954.19
2017-11-22T04:16:18.959Z,954.17
2017-11-22T04:17:18.962Z,954.21
2017-11-22T04:18:18.965Z,954.20
2017-11-22T04:19:18.969Z,954.22
2017-11-22T04:20:18.972Z,954.21
2017-11-22T04:21:18.975Z,954.20
2017-11-22T04:22:18.978Z,954.18
2017-11-22T04:23:18.982Z,954.21
2017-11-22T04:24:18.986Z,954.19
2017-11-22T04:25:18.988Z,954.21
2017-11-22T04:26:18.993Z,954.19
2017-11-22T04:27:18.994Z,954.18
2017-11-22T04:28:18.997Z,954.18
2017-11-22T04:29:19.002Z,954.19
2017-11-22T04:30:19.004Z,954.20
2017-11-22T04:31:19.041Z,954.18
2017-11-22T04:32:19.009Z,954.17
2017-11-22T04:33:19.013Z,954.19
2017-11-22T04:34:19.024Z,954.20
2017-11-22T04:35:19.019Z,954.16
2017-11-22T04:36:19.021Z,954.13
2017-11-22T04:37:19.024Z,954.13
2017-11-22T04:38:19.028Z,954.15
2017-11-22T04:39:19.032Z,954.13
2017-11-22T04:40:19.035Z,954.15
2017-11-22T04:41:19.038Z,954.11
2017-11-22T04:42:19.042Z,954.10
2017-11-22T04:43:19.044Z,954.09
2017-11-22T04:44:19.050Z,954.06
2017-11-22T04:45:19.051Z,954.07
2017-11-22T04:46:19.051Z,954.06
2017-11-22T04:47:19.057Z,954.04
2017-11-22T04:48:19.060Z,954.04
2017-11-22T04:49:19.062Z,954.00
2017-11-22T04:50:19.067Z,953.99
2017-11-22T04:51:19.068Z,953.95
2017-11-22T04:52:19.072Z,953.94
2017-11-22T04:53:19.074Z,953.95
2017-11-22T04:54:19.077Z,953.93
2017-11-22T04:55:19.081Z,953.90
2017-11-22T04:56:19.084Z,953.93
2017-11-22T04:57:19.088Z,953.95
2017-11-22T04:58:19.092Z,953.95
2017-11-22T04:59:19.092Z,953.93
2017-11-22T05:00:19.102Z,953.96
2017-11-22T05:01:19.101Z,953.96
2017-11-22T05:02:19.104Z,953.96
2017-11-22T05:03:19.113Z,954.01
2017-11-22T05:04:19.115Z,953.95
2017-11-22T05:05:19.116Z,953.99
2017-11-22T05:06:19.116Z,954.00
2017-11-22T05:07:19.118Z,953.98
2017-11-22T05:08:19.122Z,953.97
2017-11-22T05:09:19.125Z,954.03
2017-11-22T05:10:19.128Z,954.00
2017-11-22T05:11:19.131Z,954.03
2017-11-22T05:12:19.136Z,954.04
2017-11-22T05:13:19.137Z,954.09
2017-11-22T05:14:19.140Z,954.10
2017-11-22T05:15:19.147Z,954.11
2017-11-22T05:16:19.148Z,954.09
2017-11-22T05:17:19.151Z,954.11
2017-11-22T05:18:19.154Z,954.09
2017-11-22T05:19:19.163Z,954.08
2017-11-22T05:20:19.162Z,954.08
2017-11-22T05:21:19.164Z,954.11
2017-11-22T05:22:19.166Z,954.12
2017-11-22T05:23:19.170Z,954.14
2017-11-22T05:24:19.176Z,954.09
2017-11-22T05:25:19.179Z,954.08
2017-11-22T05:26:19.193Z,954.06
2017-11-22T05:27:19.182Z,954.06
2017-11-22T05:28:19.191Z,954.06
2017-11-22T05:29:19.196Z,954.06
2017-11-22T05:30:19.197Z,954.08
2017-11-22T05:31:19.196Z,954.01
2017-11-22T05:32:19.198Z,954.03
2017-11-22T05:33:19.202Z,954.05
2017-11-22T05:34:19.205Z,954.04
2017-11-22T05:35:19.209Z,954.04
2017-11-22T05:36:19.220Z,954.03
2017-11-22T05:37:19.217Z,954.02
2017-11-22T05:38:19.219Z,953.98
2017-11-22T05:39:19.222Z,953.98
2017-11-22T05:40:19.226Z,953.99
2017-11-22T05:41:19.229Z,954.00
2017-11-22T05:42:19.231Z,953.97
2017-11-22T05:43:19.234Z,953.95
2017-11-22T05:44:19.243Z,953.96
2017-11-22T05:45:19.240Z,953.96
2017-11-22T05:46:19.255Z,953.98
2017-11-22T05:47:19.248Z,953.97
2017-11-22T05:48:19.250Z,953.91
2017-11-22T05:49:19.253Z,953.88
2017-11-22T05:50:19.256Z,953.87
2017-11-22T05:51:19.260Z,953.85
2017-11-22T05:52:19.263Z,953.85
2017-11-22T05:53:19.269Z,953.87
2017-11-22T05:54:19.270Z,953.86
2017-11-22T05:55:19.273Z,953.83
2017-11-22T05:56:19.278Z,953.80
2017-11-22T05:57:19.293Z,953.82
2017-11-22T05:58:19.282Z,953.83
2017-11-22T05:59:19.285Z,953.79
2017-11-22T06:00:19.289Z,953.79
2017-11-22T06:01:19.293Z,953.77
2017-11-22T06:02:19.295Z,953.73
2017-11-22T06:03:19.299Z,953.75
2017-11-22T06:04:19.302Z,953.72
2017-11-22T06:05:19.305Z,953.74
2017-11-22T06:06:19.335Z,953.67
2017-11-22T06:07:19.311Z,953.73
2017-11-22T06:08:19.315Z,953.74
2017-11-22T06:09:19.319Z,953.74
2017-11-22T06:10:19.319Z,953.68
2017-11-22T06:11:19.325Z,953.74
2017-11-22T06:12:19.329Z,953.74
2017-11-22T06:13:19.330Z,953.72
2017-11-22T06:14:19.336Z,953.70
2017-11-22T06:15:19.345Z,953.72
2017-11-22T06:16:19.343Z,953.68
2017-11-22T06:17:19.351Z,953.74
2017-11-22T06:18:19.349Z,953.78
2017-11-22T06:19:19.353Z,953.71
2017-11-22T06:20:19.355Z,953.75
2017-11-22T06:21:19.357Z,953.76
2017-11-22T06:22:19.362Z,953.76
2017-11-22T06:23:19.366Z,953.75
2017-11-22T06:24:19.369Z,953.75
2017-11-22T06:25:19.371Z,953.77
2017-11-22T06:26:19.375Z,953.75
2017-11-22T06:27:19.377Z,953.76
2017-11-22T06:28:19.392Z,953.80
2017-11-22T06:29:19.384Z,953.81
2017-11-22T06:30:19.388Z,953.79
2017-11-22T06:31:19.389Z,953.79
2017-11-22T06:32:19.395Z,953.86
2017-11-22T06:33:19.396Z,953.86
2017-11-22T06:34:19.402Z,953.85
2017-11-22T06:35:19.403Z,953.85
2017-11-22T06:36:19.408Z,953.89
2017-11-22T06:37:19.412Z,953.87
2017-11-22T06:38:19.422Z,953.90
2017-11-22T06:39:19.417Z,953.96
2017-11-22T06:40:19.419Z,953.95
2017-11-22T06:41:19.424Z,953.91
2017-11-22T06:42:19.427Z,953.95
2017-11-22T06:43:19.430Z,953.92
2017-11-22T06:44:19.434Z,953.92
2017-11-22T06:45:19.436Z,953.94
2017-11-22T06:46:19.440Z,953.97
2017-11-22T06:47:19.445Z,954.03
2017-11-22T06:48:19.447Z,953.98
2017-11-22T06:49:19.450Z,953.95
2017-11-22T06:50:19.455Z,953.97
2017-11-22T06:51:19.456Z,953.96
2017-11-22T06:52:19.461Z,953.96
2017-11-22T06:53:19.463Z,953.93
2017-11-22T06:54:19.469Z,953.92
2017-11-22T06:55:19.470Z,953.97
2017-11-22T06:56:19.474Z,953.92
2017-11-22T06:57:19.477Z,953.93
2017-11-22T06:58:19.481Z,953.99
2017-11-22T06:59:19.484Z,953.94
2017-11-22T07:00:19.488Z,953.95
2017-11-22T07:01:19.490Z,953.93
2017-11-22T07:02:19.500Z,953.99
2017-11-22T07:03:19.497Z,953.98
2017-11-22T07:04:19.501Z,953.97
2017-11-22T07:05:19.502Z,953.92
2017-11-22T07:06:19.517Z,953.91
2017-11-22T07:07:19.512Z,953.93
2017-11-22T07:08:19.514Z,953.93
2017-11-22T07:09:19.519Z,953.92
2017-11-22T07:10:19.521Z,953.90
2017-11-22T07:11:19.525Z,953.90
2017-11-22T07:12:19.528Z,953.89
2017-11-22T07:13:19.531Z,953.89
2017-11-22T07:14:19.534Z,953.92
2017-11-22T07:15:19.537Z,953.91
2017-11-22T07:16:19.548Z,953.92
2017-11-22T07:17:19.544Z,953.90
2017-11-22T07:18:19.547Z,953.87
2017-11-22T07:19:19.554Z,953.89
2017-11-22T07:20:19.558Z,953.88
2017-11-22T07:21:19.558Z,953.90
2017-11-22T07:22:19.564Z,953.92
2017-11-22T07:23:19.565Z,953.94
2017-11-22T07:24:19.569Z,953.92
2017-11-22T07:25:19.573Z,953.89
2017-11-22T07:26:19.575Z,953.92
2017-11-22T07:27:19.578Z,953.92
2017-11-22T07:28:19.582Z,953.90
2017-11-22T07:29:19.586Z,953.90
2017-11-22T07:30:19.588Z,953.90
2017-11-22T07:31:19.592Z,953.88
2017-11-22T07:32:19.602Z,953.87
2017-11-22T07:33:19.633Z,953.81
2017-11-22T07:34:19.602Z,953.75
2017-11-22T07:35:19.609Z,953.82
2017-11-22T07:36:19.613Z,953.80
2017-11-22T07:37:19.618Z,953.77
2017-11-22T07:38:19.617Z,953.79
2017-11-22T07:39:19.622Z,953.78
2017-11-22T07:40:19.625Z,953.79
2017-11-22T07:41:19.627Z,953.81
2017-11-22T07:42:19.631Z,953.85
2017-11-22T07:43:19.633Z,953.82
2017-11-22T07:44:19.637Z,953.85
2017-11-22T07:45:19.638Z,953.82
2017-11-22T07:46:19.642Z,953.82
2017-11-22T07:47:19.648Z,953.82
2017-11-22T07:48:19.649Z,953.84
2017-11-22T07:49:19.651Z,953.81
2017-11-22T07:50:19.657Z,953.83
2017-11-22T07:51:19.660Z,953.79
2017-11-22T07:52:19.662Z,953.80
2017-11-22T07:53:19.666Z,953.80
2017-11-22T07:54:19.669Z,953.78
2017-11-22T07:55:19.686Z,953.77
2017-11-22T07:56:19.678Z,953.84
2017-11-22T07:57:19.677Z,953.80
2017-11-22T07:58:19.681Z,953.82
2017-11-22T07:59:19.693Z,953.78
2017-11-22T08:00:19.692Z,953.79
2017-11-22T08:01:19.692Z,953.82
2017-11-22T08:02:19.696Z,953.79
2017-11-22T08:03:19.699Z,953.80
2017-11-22T08:04:19.702Z,953.80
2017-11-22T08:05:19.706Z,953.79
2017-11-22T08:06:19.711Z,953.80
2017-11-22T08:07:19.711Z,953.83
2017-11-22T08:08:19.717Z,953.81
2017-11-22T08:09:19.717Z,953.78
2017-11-22T08:10:19.722Z,953.75
2017-11-22T08:11:19.725Z,953.76
2017-11-22T08:12:19.729Z,953.81
2017-11-22T08:13:19.729Z,953.79
2017-11-22T08:14:19.733Z,953.81
2017-11-22T08:15:19.738Z,953.82
2017-11-22T08:16:19.743Z,953.85
2017-11-22T08:17:19.746Z,953.81
2017-11-22T08:18:19.746Z,953.80
2017-11-22T08:19:19.751Z,953.81
2017-11-22T08:20:19.756Z,953.78
2017-11-22T08:21:19.758Z,953.81
2017-11-22T08:22:19.759Z,953.76
2017-11-22T08:23:19.763Z,953.77
2017-11-22T08:24:19.769Z,953.78
2017-11-22T08:25:19.770Z,953.79
2017-11-22T08:26:19.775Z,953.78
2017-11-22T08:27:19.778Z,953.81
2017-11-22T08:28:19.781Z,953.80
2017-11-22T08:29:19.786Z,953.80
2017-11-22T08:30:19.788Z,953.81
2017-11-22T08:31:19.790Z,953.80
2017-11-22T08:32:19.801Z,953.77
2017-11-22T08:33:19.800Z,953.74
2017-11-22T08:34:19.803Z,953.78
2017-11-22T08:35:19.804Z,953.77
2017-11-22T08:36:19.808Z,953.81
2017-11-22T08:37:19.810Z,953.76
2017-11-22T08:38:19.814Z,953.78
2017-11-22T08:39:19.817Z,953.76
2017-11-22T08:40:19.824Z,953.74
2017-11-22T08:41:19.825Z,953.72
2017-11-22T08:42:19.828Z,953.68
2017-11-22T08:43:19.832Z,953.76
2017-11-22T08:44:19.838Z,953.77
2017-11-22T08:45:19.837Z,953.79
2017-11-22T08:46:19.843Z,953.76
2017-11-22T08:47:19.845Z,953.78
2017-11-22T08:48:19.854Z,953.75
2017-11-22T08:49:19.852Z,953.79
2017-11-22T08:50:19.856Z,953.73
2017-11-22T08:51:19.860Z,953.78
2017-11-22T08:52:19.863Z,953.78
2017-11-22T08:53:19.866Z,953.78
2017-11-22T08:54:19.872Z,953.79
2017-11-22T08:55:19.872Z,953.79
2017-11-22T08:56:19.876Z,953.80
2017-11-22T08:57:19.881Z,953.79
2017-11-22T08:58:19.882Z,953.74
2017-11-22T08:59:19.887Z,953.76
2017-11-22T09:00:19.891Z,953.78
2017-11-22T09:01:19.899Z,953.79
2017-11-22T09:02:19.897Z,953.82
2017-11-22T09:03:19.898Z,953.78
2017-11-22T09:04:19.909Z,953.78
2017-11-22T09:05:19.906Z,953.78
2017-11-22T09:06:19.923Z,953.80
2017-11-22T09:07:19.915Z,953.78
2017-11-22T09:08:19.918Z,953.80
2017-11-22T09:09:19.922Z,953.83
2017-11-22T09:10:19.924Z,953.77
2017-11-22T09:11:19.936Z,953.79
2017-11-22T09:12:19.931Z,953.80
2017-11-22T09:13:19.934Z,953.76
2017-11-22T09:14:19.939Z,953.79
2017-11-22T09:15:19.945Z,953.77
2017-11-22T09:16:19.946Z,953.75
2017-11-22T09:17:19.949Z,953.76
2017-11-22T09:18:19.956Z,953.79
2017-11-22T09:19:19.958Z,953.77
2017-11-22T09:20:19.961Z,953.78
2017-11-22T09:21:19.966Z,953.76
2017-11-22T09:22:19.966Z,953.78
2017-11-22T09:23:19.983Z,953.78
2017-11-22T09:24:19.975Z,953.78
2017-11-22T09:25:19.977Z,953.75
2017-11-22T09:26:19.984Z,953.74
2017-11-22T09:27:19.987Z,953.76
2017-11-22T09:28:19.989Z,953.74
2017-11-22T09:29:19.994Z,953.74
2017-11-22T09:30:19.998Z,953.71
2017-11-22T09:31:20.003Z,953.72
2017-11-22T09:32:20.011Z,953.75
2017-11-22T09:33:20.010Z,953.77
2017-11-22T09:34:20.012Z,953.69
2017-11-22T09:35:20.017Z,953.67
2017-11-22T09:36:20.017Z,953.67
2017-11-22T09:37:20.023Z,953.89
2017-11-22T09:38:20.026Z,953.91
2017-11-22T09:39:20.032Z,953.72
2017-11-22T09:40:20.036Z,953.72
2017-11-22T09:41:20.037Z,953.69
2017-11-22T09:42:20.043Z,953.70
2017-11-22T09:43:20.046Z,953.67
2017-11-22T09:44:20.047Z,953.72
2017-11-22T09:45:20.051Z,953.70
2017-11-22T09:46:20.055Z,953.69
2017-11-22T09:47:20.083Z,953.68
2017-11-22T09:48:20.067Z,953.62
2017-11-22T09:49:20.068Z,953.62
2017-11-22T09:50:20.069Z,953.68
2017-11-22T09:51:20.075Z,953.67
2017-11-22T09:52:20.080Z,953.65
2017-11-22T09:53:20.080Z,953.66
2017-11-22T09:54:20.084Z,953.63
2017-11-22T09:55:20.092Z,953.62
2017-11-22T09:56:20.093Z,953.65
2017-11-22T09:57:20.096Z,953.64
2017-11-22T09:58:20.106Z,953.65
2017-11-22T09:59:20.102Z,953.75
2017-11-22T10:00:20.108Z,953.82
2017-11-22T10:01:20.112Z,953.52
2017-11-22T10:02:20.114Z,953.61
2017-11-22T10:03:20.126Z,953.58
2017-11-22T10:04:20.122Z,953.51
2017-11-22T10:05:20.128Z,953.70
2017-11-22T10:06:20.129Z,953.65
2017-11-22T10:07:20.139Z,953.63
2017-11-22T10:08:20.145Z,953.63
2017-11-22T10:09:20.144Z,953.59
2017-11-22T10:10:20.145Z,953.65
2017-11-22T10:11:20.146Z,953.61
2017-11-22T10:12:20.153Z,953.60
2017-11-22T10:13:20.154Z,953.58
2017-11-22T10:14:20.158Z,953.58
2017-11-22T10:15:20.162Z,953.52
2017-11-22T10:16:20.166Z,953.59
2017-11-22T10:17:20.168Z,953.50
2017-11-22T10:18:20.172Z,953.49
2017-11-22T10:19:20.177Z,953.46
2017-11-22T10:20:20.180Z,953.42
2017-11-22T10:21:20.183Z,953.53
2017-11-22T10:22:20.194Z,953.49
2017-11-22T10:23:20.191Z,953.44
2017-11-22T10:24:20.195Z,953.46
2017-11-22T10:25:20.208Z,953.44
2017-11-22T10:26:20.202Z,953.43
2017-11-22T10:27:20.206Z,953.37
2017-11-22T10:28:20.210Z,953.43
2017-11-22T10:29:20.219Z,953.36
2017-11-22T10:30:20.217Z,953.36
2017-11-22T10:31:20.220Z,953.39
2017-11-22T10:32:20.225Z,953.44
2017-11-22T10:33:20.228Z,953.40
2017-11-22T10:34:20.232Z,953.40
2017-11-22T10:35:20.238Z,953.36
2017-11-22T10:36:20.245Z,953.33
2017-11-22T10:37:20.244Z,953.28
2017-11-22T10:38:20.256Z,953.28
2017-11-22T10:39:20.250Z,953.27
2017-11-22T10:40:20.254Z,953.26
2017-11-22T10:41:20.256Z,953.23
2017-11-22T10:42:20.264Z,953.20
2017-11-22T10:43:20.266Z,953.18
2017-11-22T10:44:20.272Z,953.12
2017-11-22T10:45:20.277Z,953.14
2017-11-22T10:46:20.281Z,953.08
2017-11-22T10:47:20.281Z,953.03
2017-11-22T10:48:20.284Z,953.03
2017-11-22T10:49:20.289Z,953.04
2017-11-22T10:50:20.302Z,953.05
2017-11-22T10:51:20.296Z,953.03
2017-11-22T10:52:20.301Z,952.95
2017-11-22T10:53:20.315Z,953.00
2017-11-22T10:54:20.306Z,952.95
2017-11-22T10:55:20.309Z,952.93
2017-11-22T10:56:20.321Z,952.98
2017-11-22T10:57:20.318Z,952.93
2017-11-22T10:58:20.322Z,952.98
2017-11-22T10:59:20.327Z,952.95
2017-11-22T11:00:20.330Z,952.92
2017-11-22T11:01:20.333Z,952.91
2017-11-22T11:02:20.338Z,952.90
2017-11-22T11:03:20.342Z,952.93
2017-11-22T11:04:20.346Z,952.92
2017-11-22T11:05:20.364Z,952.91
2017-11-22T11:06:20.351Z,952.92
2017-11-22T11:07:20.376Z,952.89
2017-11-22T11:08:20.366Z,952.92
2017-11-22T11:09:20.378Z,952.93
2017-11-22T11:10:20.368Z,952.91
2017-11-22T11:11:20.372Z,952.91
2017-11-22T11:12:20.379Z,952.90
2017-11-22T11:13:20.379Z,952.84
2017-11-22T11:14:20.385Z,952.85
2017-11-22T11:15:20.386Z,952.80
2017-11-22T11:16:20.392Z,952.81
2017-11-22T11:17:20.407Z,952.79
2017-11-22T11:18:20.398Z,952.81
2017-11-22T11:19:20.401Z,952.78
2017-11-22T11:20:20.405Z,952.71
2017-11-22T11:21:20.417Z,952.78
2017-11-22T11:22:20.412Z,952.73
2017-11-22T11:23:20.417Z,952.72
2017-11-22T11:24:20.428Z,952.70
2017-11-22T11:25:20.424Z,952.66
2017-11-22T11:26:20.428Z,952.66
2017-11-22T11:27:20.433Z,952.69
2017-11-22T11:28:20.436Z,952.70
2017-11-22T11:29:20.440Z,952.68
2017-11-22T11:30:20.448Z,952.69
2017-11-22T11:31:20.448Z,952.66
2017-11-22T11:32:20.454Z,952.61
2017-11-22T11:33:20.455Z,952.62
2017-11-22T11:34:20.458Z,952.61
2017-11-22T11:35:20.462Z,952.67
2017-11-22T11:36:20.465Z,952.62
2017-11-22T11:37:20.469Z,952.66
2017-11-22T11:38:20.475Z,952.63
2017-11-22T11:39:20.477Z,952.60
2017-11-22T11:40:20.483Z,952.59
2017-11-22T11:41:20.482Z,952.61
2017-11-22T11:42:20.487Z,952.59
2017-11-22T11:43:20.493Z,952.59
2017-11-22T11:44:20.500Z,952.58
2017-11-22T11:45:20.500Z,952.55
2017-11-22T11:46:20.504Z,952.55
2017-11-22T11:47:20.508Z,952.53
2017-11-22T11:48:20.523Z,952.55
2017-11-22T11:49:20.517Z,952.49
2017-11-22T11:50:20.536Z,952.47
2017-11-22T11:51:20.529Z,952.48
2017-11-22T11:52:20.530Z,952.50
2017-11-22T11:53:20.531Z,952.48
2017-11-22T11:54:20.535Z,952.53
2017-11-22T11:55:20.542Z,952.48
2017-11-22T11:56:20.539Z,952.46
2017-11-22T11:57:20.544Z,952.48
2017-11-22T11:58:20.595Z,952.49
2017-11-22T11:59:20.589Z,952.42
2017-11-22T12:00:20.595Z,952.45
2017-11-22T12:01:20.588Z,952.47
2017-11-22T12:02:20.590Z,952.49
2017-11-22T12:03:20.591Z,952.48
2017-11-22T12:04:20.593Z,952.46
2017-11-22T12:05:20.595Z,952.44
2017-11-22T12:06:20.597Z,952.39
2017-11-22T12:07:20.592Z,952.38
2017-11-22T12:08:20.595Z,952.34
2017-11-22T12:09:20.593Z,952.33
2017-11-22T12:10:20.596Z,952.32
2017-11-22T12:11:20.608Z,952.29
2017-11-22T12:12:20.603Z,952.29
2017-11-22T12:13:20.608Z,952.27
2017-11-22T12:14:20.608Z,952.28
2017-11-22T12:15:20.614Z,952.26
2017-11-22T12:16:20.616Z,952.30
2017-11-22T12:17:20.624Z,952.29
2017-11-22T12:18:20.624Z,952.38
2017-11-22T12:19:20.663Z,952.26
2017-11-22T12:20:20.665Z,952.23
2017-11-22T12:21:20.663Z,952.28
2017-11-22T12:22:20.676Z,952.25
2017-11-22T12:23:20.667Z,952.23
2017-11-22T12:24:20.669Z,952.23
2017-11-22T12:25:20.670Z,952.27
2017-11-22T12:26:20.671Z,952.32
2017-11-22T12:27:20.668Z,952.32
2017-11-22T12:28:20.669Z,952.31